sensor_id;sensor_type;location;lat;lon;timestamp;pressure;altitude;pressure_sealevel;temperature;humidity
75221;BME280;63802;53.232;6.570;2023-04-08T00:00:19;102504.31;;;4.15;84.09
75221;BME280;63802;53.232;6.570;2023-04-08T00:02:45;102507.00;;;4.15;84.45
75221;BME280;63802;53.232;6.570;2023-04-08T00:05:11;102501.09;;;4.07;84.71
75221;BME280;63802;53.232;6.570;2023-04-08T00:07:36;102504.34;;;4.10;84.42
75221;BME280;63802;53.232;6.570;2023-04-08T00:10:02;102503.25;;;4.05;84.70
75221;BME280;63802;53.232;6.570;2023-04-08T00:12:28;102511.66;;;4.04;84.90
75221;BME280;63802;53.232;6.570;2023-04-08T00:14:53;102514.88;;;4.06;85.22
75221;BME280;63802;53.232;6.570;2023-04-08T00:17:19;102514.63;;;4.02;85.62
75221;BME280;63802;53.232;6.570;2023-04-08T00:19:45;102511.41;;;4.00;85.50
75221;BME280;63802;53.232;6.570;2023-04-08T00:22:10;102514.66;;;3.92;85.66
75221;BME280;63802;53.232;6.570;2023-04-08T00:24:36;102518.72;;;3.95;85.97
75221;BME280;63802;53.232;6.570;2023-04-08T00:27:01;102508.22;;;3.88;85.87
75221;BME280;63802;53.232;6.570;2023-04-08T00:29:27;102521.97;;;3.87;86.01
75221;BME280;63802;53.232;6.570;2023-04-08T00:31:53;102514.16;;;3.85;86.42
75221;BME280;63802;53.232;6.570;2023-04-08T00:34:19;102518.50;;;3.81;86.43
75221;BME280;63802;53.232;6.570;2023-04-08T00:36:44;102519.84;;;3.79;86.65
75221;BME280;63802;53.232;6.570;2023-04-08T00:39:11;102522.00;;;3.77;86.62
75221;BME280;63802;53.232;6.570;2023-04-08T00:41:36;102507.22;;;3.64;86.77
75221;BME280;63802;53.232;6.570;2023-04-08T00:44:02;102539.03;;;3.72;87.18
75221;BME280;63802;53.232;6.570;2023-04-08T00:46:30;102519.59;;;3.65;86.99
75221;BME280;63802;53.232;6.570;2023-04-08T00:48:57;102507.75;;;3.56;87.24
75221;BME280;63802;53.232;6.570;2023-04-08T00:51:23;102530.41;;;3.65;87.18
75221;BME280;63802;53.232;6.570;2023-04-08T00:53:48;102528.00;;;3.64;87.44
75221;BME280;63802;53.232;6.570;2023-04-08T00:56:14;102521.25;;;3.56;87.62
75221;BME280;63802;53.232;6.570;2023-04-08T00:58:39;102513.19;;;3.41;87.93
75221;BME280;63802;53.232;6.570;2023-04-08T01:01:38;102525.84;;;3.46;87.86
75221;BME280;63802;53.232;6.570;2023-04-08T01:07:12;102532.06;;;3.46;88.33
75221;BME280;63802;53.232;6.570;2023-04-08T01:09:43;102528.31;;;3.37;88.46
75221;BME280;63802;53.232;6.570;2023-04-08T01:12:11;102532.06;;;3.36;88.62
75221;BME280;63802;53.232;6.570;2023-04-08T01:14:39;102530.47;;;3.35;88.91
75221;BME280;63802;53.232;6.570;2023-04-08T01:17:07;102521.56;;;3.24;89.08
75221;BME280;63802;53.232;6.570;2023-04-08T01:19:38;102527.25;;;3.23;89.09
75221;BME280;63802;53.232;6.570;2023-04-08T01:22:30;102536.41;;;3.27;89.04
75221;BME280;63802;53.232;6.570;2023-04-08T01:25:04;102523.50;;;3.14;89.13
75221;BME280;63802;53.232;6.570;2023-04-08T01:27:32;102541.03;;;3.16;89.10
75221;BME280;63802;53.232;6.570;2023-04-08T01:30:02;102537.78;;;3.09;89.10
75221;BME280;63802;53.232;6.570;2023-04-08T01:32:29;102537.50;;;3.06;89.56
75221;BME280;63802;53.232;6.570;2023-04-08T01:34:57;102529.16;;;3.02;89.43
75221;BME280;63802;53.232;6.570;2023-04-08T01:37:24;102526.47;;;2.92;89.64
75221;BME280;63802;53.232;6.570;2023-04-08T01:39:53;102540.19;;;2.91;89.63
75221;BME280;63802;53.232;6.570;2023-04-08T01:42:24;102541.81;;;2.82;90.05
75221;BME280;63802;53.232;6.570;2023-04-08T01:44:55;102542.31;;;2.79;90.02
75221;BME280;63802;53.232;6.570;2023-04-08T01:47:22;102539.06;;;2.66;89.72
75221;BME280;63802;53.232;6.570;2023-04-08T01:49:50;102540.97;;;2.61;90.00
75221;BME280;63802;53.232;6.570;2023-04-08T01:52:18;102538.00;;;2.62;90.32
75221;BME280;63802;53.232;6.570;2023-04-08T01:54:44;102531.81;;;2.52;90.09
75221;BME280;63802;53.232;6.570;2023-04-08T01:57:13;102549.56;;;2.53;90.41
75221;BME280;63802;53.232;6.570;2023-04-08T01:59:41;102546.03;;;2.47;90.26
75221;BME280;63802;53.232;6.570;2023-04-08T02:02:08;102547.69;;;2.48;90.34
75221;BME280;63802;53.232;6.570;2023-04-08T02:04:34;102550.66;;;2.47;90.65
75221;BME280;63802;53.232;6.570;2023-04-08T02:07:00;102547.16;;;2.51;90.99
75221;BME280;63802;53.232;6.570;2023-04-08T02:09:26;102558.44;;;2.48;90.56
75221;BME280;63802;53.232;6.570;2023-04-08T02:11:52;102553.88;;;2.44;90.92
75221;BME280;63802;53.232;6.570;2023-04-08T02:14:18;102551.69;;;2.41;91.11
75221;BME280;63802;53.232;6.570;2023-04-08T02:16:53;102552.25;;;2.48;91.00
75221;BME280;63802;53.232;6.570;2023-04-08T02:22:18;102551.94;;;2.34;91.11
75221;BME280;63802;53.232;6.570;2023-04-08T02:24:49;102553.53;;;2.25;91.33
75221;BME280;63802;53.232;6.570;2023-04-08T02:27:16;102555.66;;;2.18;91.41
75221;BME280;63802;53.232;6.570;2023-04-08T02:29:42;102552.97;;;2.18;91.48
75221;BME280;63802;53.232;6.570;2023-04-08T02:32:10;102553.75;;;2.19;91.73
75221;BME280;63802;53.232;6.570;2023-04-08T02:34:39;102536.78;;;2.08;91.43
75221;BME280;63802;53.232;6.570;2023-04-08T02:37:07;102561.28;;;2.17;91.79
75221;BME280;63802;53.232;6.570;2023-04-08T02:39:32;102555.09;;;2.16;91.77
75221;BME280;63802;53.232;6.570;2023-04-08T02:41:58;102554.84;;;2.13;91.78
75221;BME280;63802;53.232;6.570;2023-04-08T02:44:24;102556.16;;;2.10;92.02
75221;BME280;63802;53.232;6.570;2023-04-08T02:46:49;102565.88;;;2.16;92.28
75221;BME280;63802;53.232;6.570;2023-04-08T02:49:15;102569.13;;;2.18;92.01
75221;BME280;63802;53.232;6.570;2023-04-08T02:51:40;102562.94;;;2.18;92.24
75221;BME280;63802;53.232;6.570;2023-04-08T02:54:06;102551.53;;;2.00;92.39
75221;BME280;63802;53.232;6.570;2023-04-08T02:56:31;102572.03;;;2.07;92.43
75221;BME280;63802;53.232;6.570;2023-04-08T02:58:56;102564.69;;;1.97;92.14
75221;BME280;63802;53.232;6.570;2023-04-08T03:01:22;102567.69;;;2.00;92.29
75221;BME280;63802;53.232;6.570;2023-04-08T03:03:47;102573.59;;;1.97;92.37
75221;BME280;63802;53.232;6.570;2023-04-08T03:06:13;102567.91;;;1.89;92.61
75221;BME280;63802;53.232;6.570;2023-04-08T03:08:38;102579.28;;;2.01;92.51
75221;BME280;63802;53.232;6.570;2023-04-08T03:11:04;102577.91;;;1.98;92.88
75221;BME280;63802;53.232;6.570;2023-04-08T03:13:29;102582.53;;;2.03;92.83
75221;BME280;63802;53.232;6.570;2023-04-08T03:15:56;102557.13;;;1.84;92.78
75221;BME280;63802;53.232;6.570;2023-04-08T03:18:21;102560.94;;;1.93;92.64
75221;BME280;63802;53.232;6.570;2023-04-08T03:20:47;102569.00;;;1.93;92.65
75221;BME280;63802;53.232;6.570;2023-04-08T03:23:12;102564.13;;;1.90;92.93
75221;BME280;63802;53.232;6.570;2023-04-08T03:25:38;102571.16;;;1.91;92.87
75221;BME280;63802;53.232;6.570;2023-04-08T03:28:03;102573.84;;;1.91;93.07
75221;BME280;63802;53.232;6.570;2023-04-08T03:30:29;102578.66;;;1.84;92.97
75221;BME280;63802;53.232;6.570;2023-04-08T03:32:54;102590.22;;;1.84;92.95
75221;BME280;63802;53.232;6.570;2023-04-08T03:35:20;102590.22;;;1.84;93.04
75221;BME280;63802;53.232;6.570;2023-04-08T03:37:45;102579.47;;;1.84;93.30
75221;BME280;63802;53.232;6.570;2023-04-08T03:40:11;102587.81;;;1.88;93.28
75221;BME280;63802;53.232;6.570;2023-04-08T03:42:37;102584.09;;;1.94;93.34
75221;BME280;63802;53.232;6.570;2023-04-08T03:45:03;102591.66;;;2.02;93.33
75221;BME280;63802;53.232;6.570;2023-04-08T03:47:29;102584.66;;;2.01;93.33
75221;BME280;63802;53.232;6.570;2023-04-08T03:49:54;102574.97;;;2.00;93.30
75221;BME280;63802;53.232;6.570;2023-04-08T03:52:21;102586.28;;;2.02;93.67
75221;BME280;63802;53.232;6.570;2023-04-08T03:54:47;102590.69;;;2.18;93.60
75221;BME280;63802;53.232;6.570;2023-04-08T03:57:12;102583.16;;;2.20;93.77
75221;BME280;63802;53.232;6.570;2023-04-08T03:59:38;102577.22;;;2.23;93.87
75221;BME280;63802;53.232;6.570;2023-04-08T04:02:05;102589.63;;;2.24;93.87
75221;BME280;63802;53.232;6.570;2023-04-08T04:04:30;102596.34;;;2.22;93.83
75221;BME280;63802;53.232;6.570;2023-04-08T04:06:56;102590.41;;;2.20;93.94
75221;BME280;63802;53.232;6.570;2023-04-08T04:09:21;102590.13;;;2.21;94.00
75221;BME280;63802;53.232;6.570;2023-04-08T04:11:47;102576.63;;;2.06;94.04
75221;BME280;63802;53.232;6.570;2023-04-08T04:14:12;102592.81;;;2.16;93.87
75221;BME280;63802;53.232;6.570;2023-04-08T04:16:38;102595.25;;;2.18;93.96
75221;BME280;63802;53.232;6.570;2023-04-08T04:19:03;102594.94;;;2.14;94.20
75221;BME280;63802;53.232;6.570;2023-04-08T04:21:29;102593.84;;;2.10;93.93
75221;BME280;63802;53.232;6.570;2023-04-08T04:23:54;102592.19;;;1.99;94.13
75221;BME280;63802;53.232;6.570;2023-04-08T04:26:20;102602.16;;;1.98;94.14
75221;BME280;63802;53.232;6.570;2023-04-08T04:28:45;102610.75;;;1.95;94.28
75221;BME280;63802;53.232;6.570;2023-04-08T04:31:20;102595.88;;;1.88;94.21
75221;BME280;63802;53.232;6.570;2023-04-08T04:33:47;102602.31;;;1.82;94.27
75221;BME280;63802;53.232;6.570;2023-04-08T04:36:13;102599.53;;;1.67;94.16
75221;BME280;63802;53.232;6.570;2023-04-08T04:38:38;102599.50;;;1.62;94.15
75221;BME280;63802;53.232;6.570;2023-04-08T04:41:04;102613.28;;;1.75;94.19
75221;BME280;63802;53.232;6.570;2023-04-08T04:43:29;102614.13;;;1.76;94.32
75221;BME280;63802;53.232;6.570;2023-04-08T04:45:55;102621.09;;;1.72;93.99
75221;BME280;63802;53.232;6.570;2023-04-08T04:48:21;102621.13;;;1.77;94.40
75221;BME280;63802;53.232;6.570;2023-04-08T04:50:54;102612.47;;;1.70;94.40
75221;BME280;63802;53.232;6.570;2023-04-08T04:53:20;102615.72;;;1.72;94.57
75221;BME280;63802;53.232;6.570;2023-04-08T04:55:46;102622.72;;;1.78;94.38
75221;BME280;63802;53.232;6.570;2023-04-08T04:58:11;102629.22;;;1.77;94.48
75221;BME280;63802;53.232;6.570;2023-04-08T05:00:37;102627.56;;;1.76;94.72
75221;BME280;63802;53.232;6.570;2023-04-08T05:03:02;102614.63;;;1.73;94.35
75221;BME280;63802;53.232;6.570;2023-04-08T05:05:28;102621.72;;;1.84;94.68
75221;BME280;63802;53.232;6.570;2023-04-08T05:07:53;102632.00;;;1.97;94.72
75221;BME280;63802;53.232;6.570;2023-04-08T05:10:19;102611.00;;;1.94;94.32
75221;BME280;63802;53.232;6.570;2023-04-08T05:12:45;102632.06;;;2.07;94.66
75221;BME280;63802;53.232;6.570;2023-04-08T05:15:10;102632.06;;;2.07;94.67
75221;BME280;63802;53.232;6.570;2023-04-08T05:17:36;102642.09;;;2.17;94.91
75221;BME280;63802;53.232;6.570;2023-04-08T05:20:01;102635.34;;;2.14;94.86
75221;BME280;63802;53.232;6.570;2023-04-08T05:22:27;102634.88;;;2.27;94.62
75221;BME280;63802;53.232;6.570;2023-04-08T05:24:53;102653.78;;;2.37;94.96
75221;BME280;63802;53.232;6.570;2023-04-08T05:27:18;102643.56;;;2.39;95.04
75221;BME280;63802;53.232;6.570;2023-04-08T05:29:45;102637.06;;;2.40;94.85
75221;BME280;63802;53.232;6.570;2023-04-08T05:32:11;102641.69;;;2.50;94.98
75221;BME280;63802;53.232;6.570;2023-04-08T05:34:37;102648.75;;;2.56;95.04
75221;BME280;63802;53.232;6.570;2023-04-08T05:37:02;102645.78;;;2.62;95.03
75221;BME280;63802;53.232;6.570;2023-04-08T05:39:27;102651.75;;;2.69;95.18
75221;BME280;63802;53.232;6.570;2023-04-08T05:41:53;102634.19;;;2.62;95.05
75221;BME280;63802;53.232;6.570;2023-04-08T05:44:19;102636.66;;;2.73;94.99
75221;BME280;63802;53.232;6.570;2023-04-08T05:46:44;102646.41;;;2.80;95.23
75221;BME280;63802;53.232;6.570;2023-04-08T05:49:10;102659.94;;;2.95;95.26
75221;BME280;63802;53.232;6.570;2023-04-08T05:51:36;102659.91;;;3.05;94.93
75221;BME280;63802;53.232;6.570;2023-04-08T05:54:01;102676.44;;;3.23;94.98
75221;BME280;63802;53.232;6.570;2023-04-08T05:56:27;102676.97;;;3.30;95.12
75221;BME280;63802;53.232;6.570;2023-04-08T05:58:52;102667.00;;;3.41;95.57
75221;BME280;63802;53.232;6.570;2023-04-08T06:01:18;102665.66;;;3.54;95.23
75221;BME280;63802;53.232;6.570;2023-04-08T06:03:43;102677.81;;;3.76;95.04
75221;BME280;63802;53.232;6.570;2023-04-08T06:06:09;102686.16;;;4.00;94.87
75221;BME280;63802;53.232;6.570;2023-04-08T06:08:38;102686.38;;;4.19;95.04
75221;BME280;63802;53.232;6.570;2023-04-08T06:11:04;102669.88;;;4.20;95.02
75221;BME280;63802;53.232;6.570;2023-04-08T06:13:30;102686.88;;;4.36;94.65
75221;BME280;63802;53.232;6.570;2023-04-08T06:15:56;102684.72;;;4.38;94.61
75221;BME280;63802;53.232;6.570;2023-04-08T06:18:21;102688.19;;;4.48;94.45
75221;BME280;63802;53.232;6.570;2023-04-08T06:20:47;102677.63;;;4.57;94.10
75221;BME280;63802;53.232;6.570;2023-04-08T06:23:12;102685.66;;;4.72;94.08
75221;BME280;63802;53.232;6.570;2023-04-08T06:25:38;102692.63;;;4.83;94.07
75221;BME280;63802;53.232;6.570;2023-04-08T06:28:03;102675.28;;;4.94;93.85
75221;BME280;63802;53.232;6.570;2023-04-08T06:30:29;102702.63;;;5.36;93.83
75221;BME280;63802;53.232;6.570;2023-04-08T06:32:54;102689.38;;;5.69;93.60
75221;BME280;63802;53.232;6.570;2023-04-08T06:35:19;102700.63;;;5.86;92.95
75221;BME280;63802;53.232;6.570;2023-04-08T06:37:45;102694.09;;;5.92;92.34
75221;BME280;63802;53.232;6.570;2023-04-08T06:40:11;102692.50;;;5.86;91.35
75221;BME280;63802;53.232;6.570;2023-04-08T06:42:37;102706.59;;;5.83;91.26
75221;BME280;63802;53.232;6.570;2023-04-08T06:45:03;102701.44;;;5.86;90.57
75221;BME280;63802;53.232;6.570;2023-04-08T06:47:29;102711.38;;;5.96;90.53
75221;BME280;63802;53.232;6.570;2023-04-08T06:49:54;102707.06;;;5.95;89.83
75221;BME280;63802;53.232;6.570;2023-04-08T06:52:20;102699.03;;;5.85;89.26
75221;BME280;63802;53.232;6.570;2023-04-08T06:54:45;102701.69;;;5.90;88.90
75221;BME280;63802;53.232;6.570;2023-04-08T06:57:11;102703.22;;;6.01;88.47
75221;BME280;63802;53.232;6.570;2023-04-08T07:02:58;102709.94;;;6.32;87.23
75221;BME280;63802;53.232;6.570;2023-04-08T07:05:23;102708.69;;;6.48;87.02
75221;BME280;63802;53.232;6.570;2023-04-08T07:07:49;102711.16;;;6.68;86.20
75221;BME280;63802;53.232;6.570;2023-04-08T07:10:15;102716.22;;;6.75;85.71
75221;BME280;63802;53.232;6.570;2023-04-08T07:12:40;102713.03;;;6.92;84.82
75221;BME280;63802;53.232;6.570;2023-04-08T07:15:06;102713.47;;;6.99;84.09
75221;BME280;63802;53.232;6.570;2023-04-08T07:17:32;102724.22;;;7.09;83.69
75221;BME280;63802;53.232;6.570;2023-04-08T07:19:58;102715.09;;;7.00;82.58
75221;BME280;63802;53.232;6.570;2023-04-08T07:22:23;102728.16;;;6.98;82.28
75221;BME280;63802;53.232;6.570;2023-04-08T07:24:49;102730.38;;;6.96;82.00
75221;BME280;63802;53.232;6.570;2023-04-08T07:27:15;102730.81;;;7.03;81.73
75221;BME280;63802;53.232;6.570;2023-04-08T07:29:41;102736.81;;;7.00;81.48
75221;BME280;63802;53.232;6.570;2023-04-08T07:32:06;102740.47;;;6.90;81.18
75221;BME280;63802;53.232;6.570;2023-04-08T07:34:34;102745.38;;;6.88;81.29
75221;BME280;63802;53.232;6.570;2023-04-08T07:37:00;102743.31;;;6.80;80.86
75221;BME280;63802;53.232;6.570;2023-04-08T07:39:25;102745.59;;;6.92;81.26
75221;BME280;63802;53.232;6.570;2023-04-08T07:41:51;102748.50;;;7.00;80.85
75221;BME280;63802;53.232;6.570;2023-04-08T07:44:16;102745.41;;;7.07;80.68
75221;BME280;63802;53.232;6.570;2023-04-08T07:46:44;102746.88;;;6.99;80.85
75221;BME280;63802;53.232;6.570;2023-04-08T07:49:15;102758.09;;;6.93;80.60
75221;BME280;63802;53.232;6.570;2023-04-08T07:51:41;102751.81;;;7.16;80.97
75221;BME280;63802;53.232;6.570;2023-04-08T07:54:06;102759.44;;;7.14;80.65
75221;BME280;63802;53.232;6.570;2023-04-08T07:56:32;102759.19;;;7.10;80.06
75221;BME280;63802;53.232;6.570;2023-04-08T07:58:57;102757.59;;;7.09;80.46
75221;BME280;63802;53.232;6.570;2023-04-08T08:01:23;102760.75;;;6.98;80.50
75221;BME280;63802;53.232;6.570;2023-04-08T08:03:49;102760.13;;;7.01;80.83
75221;BME280;63802;53.232;6.570;2023-04-08T08:06:16;102760.47;;;7.18;80.57
75221;BME280;63802;53.232;6.570;2023-04-08T08:08:42;102757.75;;;7.18;80.52
75221;BME280;63802;53.232;6.570;2023-04-08T08:11:07;102744.63;;;7.25;80.43
75221;BME280;63802;53.232;6.570;2023-04-08T08:13:33;102766.19;;;7.35;80.23
75221;BME280;63802;53.232;6.570;2023-04-08T08:15:59;102756.66;;;7.19;80.62
75221;BME280;63802;53.232;6.570;2023-04-08T08:18:24;102755.84;;;7.18;80.17
75221;BME280;63802;53.232;6.570;2023-04-08T08:20:50;102749.69;;;7.31;80.28
75221;BME280;63802;53.232;6.570;2023-04-08T08:23:15;102756.88;;;7.60;80.20
75221;BME280;63802;53.232;6.570;2023-04-08T08:25:41;102751.84;;;7.53;79.94
75221;BME280;63802;53.232;6.570;2023-04-08T08:28:07;102761.72;;;7.44;79.86
75221;BME280;63802;53.232;6.570;2023-04-08T08:30:32;102766.13;;;7.40;79.75
75221;BME280;63802;53.232;6.570;2023-04-08T08:32:58;102775.75;;;7.51;79.71
75221;BME280;63802;53.232;6.570;2023-04-08T08:35:25;102781.47;;;7.31;79.59
75221;BME280;63802;53.232;6.570;2023-04-08T08:37:50;102785.78;;;7.32;80.12
75221;BME280;63802;53.232;6.570;2023-04-08T08:40:16;102776.16;;;7.21;80.46
75221;BME280;63802;53.232;6.570;2023-04-08T08:42:48;102796.50;;;7.23;80.35
75221;BME280;63802;53.232;6.570;2023-04-08T08:45:15;102792.00;;;7.14;80.91
75221;BME280;63802;53.232;6.570;2023-04-08T08:47:40;102800.94;;;6.96;81.42
75221;BME280;63802;53.232;6.570;2023-04-08T08:50:06;102793.72;;;6.86;82.00
75221;BME280;63802;53.232;6.570;2023-04-08T08:52:31;102805.66;;;7.09;81.75
75221;BME280;63802;53.232;6.570;2023-04-08T08:54:58;102802.41;;;7.07;81.88
75221;BME280;63802;53.232;6.570;2023-04-08T08:57:23;102790.00;;;7.01;82.02
75221;BME280;63802;53.232;6.570;2023-04-08T08:59:49;102802.19;;;7.27;81.82
75221;BME280;63802;53.232;6.570;2023-04-08T09:02:31;102790.88;;;7.38;81.80
75221;BME280;63802;53.232;6.570;2023-04-08T09:04:59;102804.72;;;7.37;81.36
75221;BME280;63802;53.232;6.570;2023-04-08T09:07:26;102805.78;;;7.41;81.50
75221;BME280;63802;53.232;6.570;2023-04-08T09:09:53;102805.41;;;7.29;81.56
75221;BME280;63802;53.232;6.570;2023-04-08T09:12:19;102808.19;;;7.24;81.62
75221;BME280;63802;53.232;6.570;2023-04-08T09:14:45;102798.78;;;7.35;81.74
75221;BME280;63802;53.232;6.570;2023-04-08T09:17:11;102805.78;;;7.41;82.19
75221;BME280;63802;53.232;6.570;2023-04-08T09:19:36;102793.28;;;7.40;81.46
75221;BME280;63802;53.232;6.570;2023-04-08T09:22:06;102802.19;;;7.64;82.03
75221;BME280;63802;53.232;6.570;2023-04-08T09:24:32;102798.06;;;7.67;81.70
75221;BME280;63802;53.232;6.570;2023-04-08T09:26:57;102796.81;;;7.78;81.27
75221;BME280;63802;53.232;6.570;2023-04-08T09:29:24;102788.47;;;7.74;81.45
75221;BME280;63802;53.232;6.570;2023-04-08T09:31:57;102793.88;;;7.93;80.65
75221;BME280;63802;53.232;6.570;2023-04-08T09:34:23;102794.28;;;8.00;80.48
75221;BME280;63802;53.232;6.570;2023-04-08T09:36:49;102789.84;;;7.90;80.83
75221;BME280;63802;53.232;6.570;2023-04-08T09:39:15;102789.00;;;8.08;80.88
75221;BME280;63802;53.232;6.570;2023-04-08T09:41:42;102777.47;;;7.98;80.34
75221;BME280;63802;53.232;6.570;2023-04-08T09:44:09;102792.66;;;8.18;80.15
75221;BME280;63802;53.232;6.570;2023-04-08T09:46:37;102795.03;;;8.38;80.67
75221;BME280;63802;53.232;6.570;2023-04-08T09:49:10;102793.47;;;8.64;80.43
75221;BME280;63802;53.232;6.570;2023-04-08T09:51:45;102805.38;;;8.68;79.65
75221;BME280;63802;53.232;6.570;2023-04-08T09:54:14;102788.56;;;8.80;79.44
75221;BME280;63802;53.232;6.570;2023-04-08T09:57:10;102795.13;;;8.92;78.59
75221;BME280;63802;53.232;6.570;2023-04-08T09:59:44;102791.88;;;8.63;78.41
75221;BME280;63802;53.232;6.570;2023-04-08T10:02:16;102797.75;;;8.97;78.22
75221;BME280;63802;53.232;6.570;2023-04-08T10:04:47;102794.78;;;9.07;78.18
75221;BME280;63802;53.232;6.570;2023-04-08T10:07:16;102795.41;;;9.04;78.42
75221;BME280;63802;53.232;6.570;2023-04-08T10:09:43;102796.72;;;9.20;77.75
75221;BME280;63802;53.232;6.570;2023-04-08T10:12:09;102783.91;;;9.07;77.69
75221;BME280;63802;53.232;6.570;2023-04-08T10:14:34;102789.97;;;9.04;78.07
75221;BME280;63802;53.232;6.570;2023-04-08T10:17:25;102805.78;;;9.02;78.03
75221;BME280;63802;53.232;6.570;2023-04-08T10:19:52;102808.63;;;8.97;78.35
75221;BME280;63802;53.232;6.570;2023-04-08T10:27:43;102809.63;;;8.74;79.29
75221;BME280;63802;53.232;6.570;2023-04-08T10:32:58;102807.41;;;8.90;78.87
75221;BME280;63802;53.232;6.570;2023-04-08T10:35:31;102803.16;;;8.70;78.98
75221;BME280;63802;53.232;6.570;2023-04-08T10:37:59;102809.03;;;8.77;79.24
75221;BME280;63802;53.232;6.570;2023-04-08T10:40:25;102811.16;;;8.80;79.02
75221;BME280;63802;53.232;6.570;2023-04-08T10:42:54;102808.44;;;8.80;79.38
75221;BME280;63802;53.232;6.570;2023-04-08T10:45:20;102799.75;;;8.78;79.56
75221;BME280;63802;53.232;6.570;2023-04-08T10:47:46;102798.72;;;8.74;79.57
75221;BME280;63802;53.232;6.570;2023-04-08T10:50:17;102796.91;;;8.69;80.45
75221;BME280;63802;53.232;6.570;2023-04-08T10:52:50;102789.47;;;8.89;80.29
75221;BME280;63802;53.232;6.570;2023-04-08T10:55:22;102797.53;;;9.21;80.12
75221;BME280;63802;53.232;6.570;2023-04-08T10:57:49;102785.81;;;9.20;79.43
75221;BME280;63802;53.232;6.570;2023-04-08T11:00:31;102786.97;;;9.41;79.01
75221;BME280;63802;53.232;6.570;2023-04-08T11:03:04;102794.47;;;9.22;79.13
75221;BME280;63802;53.232;6.570;2023-04-08T11:05:31;102784.16;;;9.47;79.12
75221;BME280;63802;53.232;6.570;2023-04-08T11:08:00;102786.56;;;9.48;78.60
75221;BME280;63802;53.232;6.570;2023-04-08T11:10:26;102792.03;;;9.34;78.94
75221;BME280;63802;53.232;6.570;2023-04-08T11:12:54;102790.31;;;9.38;78.55
75221;BME280;63802;53.232;6.570;2023-04-08T11:15:20;102781.63;;;9.36;79.16
75221;BME280;63802;53.232;6.570;2023-04-08T11:17:47;102778.53;;;9.29;79.54
75221;BME280;63802;53.232;6.570;2023-04-08T11:20:13;102776.84;;;9.56;79.37
75221;BME280;63802;53.232;6.570;2023-04-08T11:22:38;102781.06;;;9.62;79.29
75221;BME280;63802;53.232;6.570;2023-04-08T11:25:05;102785.22;;;9.81;78.93
75221;BME280;63802;53.232;6.570;2023-04-08T11:27:33;102767.44;;;9.84;78.81
75221;BME280;63802;53.232;6.570;2023-04-08T11:30:00;102773.78;;;9.93;78.13
75221;BME280;63802;53.232;6.570;2023-04-08T11:32:26;102775.13;;;10.04;78.15
75221;BME280;63802;53.232;6.570;2023-04-08T11:34:53;102764.91;;;9.87;77.78
75221;BME280;63802;53.232;6.570;2023-04-08T11:37:19;102768.22;;;9.98;77.52
75221;BME280;63802;53.232;6.570;2023-04-08T11:39:45;102774.16;;;10.22;77.42
75221;BME280;63802;53.232;6.570;2023-04-08T11:42:26;102778.72;;;10.35;77.11
75221;BME280;63802;53.232;6.570;2023-04-08T11:44:52;102759.66;;;9.91;77.27
75221;BME280;63802;53.232;6.570;2023-04-08T11:47:17;102782.50;;;10.03;77.25
75221;BME280;63802;53.232;6.570;2023-04-08T11:49:44;102777.94;;;10.13;77.13
75221;BME280;63802;53.232;6.570;2023-04-08T11:52:09;102772.78;;;10.11;77.32
75221;BME280;63802;53.232;6.570;2023-04-08T11:54:40;102778.75;;;9.91;77.30
75221;BME280;63802;53.232;6.570;2023-04-08T11:57:07;102767.94;;;9.64;78.05
75221;BME280;63802;53.232;6.570;2023-04-08T11:59:35;102787.72;;;9.69;78.24
75221;BME280;63802;53.232;6.570;2023-04-08T12:02:01;102788.00;;;9.68;78.50
75221;BME280;63802;53.232;6.570;2023-04-08T12:04:26;102788.50;;;9.70;78.59
75221;BME280;63802;53.232;6.570;2023-04-08T12:06:55;102800.28;;;9.57;78.98
75221;BME280;63802;53.232;6.570;2023-04-08T12:09:23;102788.50;;;9.70;79.16
75221;BME280;63802;53.232;6.570;2023-04-08T12:11:49;102794.97;;;9.96;78.60
75221;BME280;63802;53.232;6.570;2023-04-08T12:14:14;102794.47;;;9.94;78.44
75221;BME280;63802;53.232;6.570;2023-04-08T12:16:40;102787.34;;;10.06;78.25
75221;BME280;63802;53.232;6.570;2023-04-08T12:19:06;102786.63;;;9.92;78.10
75221;BME280;63802;53.232;6.570;2023-04-08T12:21:31;102789.41;;;9.79;78.34
75221;BME280;63802;53.232;6.570;2023-04-08T12:23:58;102782.69;;;9.85;78.30
75221;BME280;63802;53.232;6.570;2023-04-08T12:26:24;102784.88;;;9.96;78.19
75221;BME280;63802;53.232;6.570;2023-04-08T12:28:51;102770.78;;;10.03;77.92
75221;BME280;63802;53.232;6.570;2023-04-08T12:31:16;102789.16;;;10.11;77.55
75221;BME280;63802;53.232;6.570;2023-04-08T12:33:42;102778.84;;;10.08;77.12
75221;BME280;63802;53.232;6.570;2023-04-08T12:36:08;102780.97;;;10.33;77.22
75221;BME280;63802;53.232;6.570;2023-04-08T12:38:33;102785.84;;;10.45;76.48
75221;BME280;63802;53.232;6.570;2023-04-08T12:40:59;102774.97;;;10.53;76.13
75221;BME280;63802;53.232;6.570;2023-04-08T12:43:24;102782.56;;;10.34;76.27
75221;BME280;63802;53.232;6.570;2023-04-08T12:45:50;102791.56;;;10.65;75.38
75221;BME280;63802;53.232;6.570;2023-04-08T12:48:16;102776.72;;;10.49;75.14
75221;BME280;63802;53.232;6.570;2023-04-08T12:50:42;102784.78;;;10.54;74.94
75221;BME280;63802;53.232;6.570;2023-04-08T12:53:07;102774.59;;;10.46;74.64
75221;BME280;63802;53.232;6.570;2023-04-08T12:55:33;102798.03;;;10.78;74.90
75221;BME280;63802;53.232;6.570;2023-04-08T12:57:58;102792.97;;;10.54;74.84
75221;BME280;63802;53.232;6.570;2023-04-08T13:00:24;102792.28;;;10.80;74.58
75221;BME280;63802;53.232;6.570;2023-04-08T13:02:50;102787.03;;;10.61;74.39
75221;BME280;63802;53.232;6.570;2023-04-08T13:05:15;102793.03;;;10.71;74.53
75221;BME280;63802;53.232;6.570;2023-04-08T13:07:41;102781.19;;;10.85;74.42
75221;BME280;63802;53.232;6.570;2023-04-08T13:10:07;102790.72;;;10.96;73.88
75221;BME280;63802;53.232;6.570;2023-04-08T13:12:33;102781.25;;;11.02;73.76
75221;BME280;63802;53.232;6.570;2023-04-08T13:14:58;102786.44;;;11.12;73.09